createdAt,value
2023-04-19T00:01:09.916Z,41.10
2023-04-19T00:03:45.650Z,41.10
2023-04-19T00:06:21.055Z,41.20
2023-04-19T00:08:56.703Z,41.10
2023-04-19T00:11:31.608Z,41.10
2023-04-19T00:14:06.482Z,41.30
2023-04-19T00:16:41.971Z,41.30
2023-04-19T00:19:16.876Z,41.40
2023-04-19T00:21:51.750Z,41.40
2023-04-19T00:24:26.769Z,41.50
2023-04-19T00:27:02.326Z,41.50
2023-04-19T00:29:37.308Z,41.60
2023-04-19T00:32:13.445Z,41.60
2023-04-19T00:34:48.332Z,41.30
2023-04-19T00:37:23.242Z,41.30
2023-04-19T00:39:58.161Z,41.20
2023-04-19T00:42:34.524Z,41.30
2023-04-19T00:45:11.522Z,41.40
2023-04-19T00:47:46.499Z,41.50
2023-04-19T00:50:22.171Z,41.50
2023-04-19T00:52:57.699Z,41.40
2023-04-19T00:55:33.758Z,41.20
2023-04-19T00:58:09.919Z,41.30
2023-04-19T01:00:44.910Z,41.40
2023-04-19T01:03:20.793Z,41.50
2023-04-19T01:05:56.999Z,41.60
2023-04-19T01:08:32.117Z,41.60
2023-04-19T01:11:08.150Z,41.60
2023-04-19T01:13:43.054Z,41.70
2023-04-19T01:16:18.884Z,41.80
2023-04-19T01:18:54.667Z,41.80
2023-04-19T01:21:30.607Z,41.90
2023-04-19T01:24:06.351Z,41.80
2023-04-19T01:26:41.186Z,42.20
2023-04-19T01:29:16.045Z,41.90
2023-04-19T01:31:53.976Z,42.00
2023-04-19T01:34:29.300Z,42.00
2023-04-19T01:37:05.024Z,42.20
2023-04-19T01:39:39.889Z,42.30
2023-04-19T01:42:15.610Z,42.30
2023-04-19T01:44:50.475Z,42.30
2023-04-19T01:47:25.427Z,42.40
2023-04-19T01:50:00.359Z,42.30
2023-04-19T01:52:35.369Z,42.40
2023-04-19T01:55:10.258Z,42.50
2023-04-19T01:57:45.342Z,42.60
2023-04-19T02:00:20.708Z,42.60
2023-04-19T02:02:55.847Z,42.60
2023-04-19T02:05:30.862Z,42.70
2023-04-19T02:08:05.869Z,42.80
2023-04-19T02:10:40.911Z,42.90
2023-04-19T02:13:16.214Z,42.90
2023-04-19T02:15:51.195Z,42.90
2023-04-19T02:18:26.322Z,42.90
2023-04-19T02:21:01.724Z,42.80
2023-04-19T02:23:36.843Z,42.90
2023-04-19T02:26:13.009Z,43.00
2023-04-19T02:28:53.988Z,42.90
2023-04-19T02:31:29.011Z,42.80
2023-04-19T02:34:03.952Z,42.70
2023-04-19T02:36:39.019Z,42.80
2023-04-19T02:39:13.870Z,42.60
2023-04-19T02:41:49.259Z,42.60
2023-04-19T02:44:24.244Z,42.60
2023-04-19T02:46:59.104Z,42.70
2023-04-19T02:49:36.807Z,42.70
2023-04-19T02:52:12.355Z,42.70
2023-04-19T02:54:49.493Z,42.80
2023-04-19T02:57:24.361Z,42.90
2023-04-19T02:59:59.388Z,42.90
2023-04-19T03:02:34.677Z,43.00
2023-04-19T03:05:10.764Z,43.10
2023-04-19T03:07:45.691Z,43.20
2023-04-19T03:10:20.719Z,43.40
2023-04-19T03:12:55.690Z,43.50
2023-04-19T03:15:30.735Z,43.50
2023-04-19T03:18:06.001Z,43.60
2023-04-19T03:20:42.788Z,43.70
2023-04-19T03:23:18.177Z,43.80
2023-04-19T03:25:54.393Z,43.80
2023-04-19T03:28:37.137Z,43.90
2023-04-19T03:31:32.436Z,43.90
2023-04-19T03:34:07.904Z,43.90
2023-04-19T03:36:48.056Z,43.90
2023-04-19T03:39:22.920Z,43.70
2023-04-19T03:42:01.636Z,43.80
2023-04-19T03:44:54.801Z,43.90
2023-04-19T03:47:31.033Z,43.90
2023-04-19T03:50:08.682Z,43.90
2023-04-19T03:52:44.642Z,44.00
2023-04-19T03:55:21.316Z,44.10
2023-04-19T03:57:56.364Z,44.10
2023-04-19T04:00:42.711Z,43.90
2023-04-19T04:03:17.848Z,44.00
2023-04-19T04:05:53.178Z,44.00
2023-04-19T04:08:28.082Z,43.90
2023-04-19T04:11:02.957Z,43.70
2023-04-19T04:13:38.761Z,43.60
2023-04-19T04:16:21.923Z,43.70
2023-04-19T04:18:58.881Z,43.80
2023-04-19T04:21:36.404Z,43.60
2023-04-19T04:24:14.078Z,43.30
2023-04-19T04:27:03.207Z,43.50
2023-04-19T04:29:41.348Z,43.80
2023-04-19T04:32:18.276Z,43.80
2023-04-19T04:34:53.389Z,44.00
2023-04-19T04:37:37.109Z,44.10
2023-04-19T04:40:13.079Z,44.00
2023-04-19T04:42:47.960Z,44.10
2023-04-19T04:45:23.100Z,44.20
2023-04-19T04:47:58.894Z,44.10
2023-04-19T04:50:34.557Z,44.10
2023-04-19T04:53:11.643Z,44.10
2023-04-19T04:55:50.130Z,43.90
2023-04-19T04:58:26.320Z,44.30
2023-04-19T05:01:09.771Z,44.20
2023-04-19T05:03:47.871Z,44.10
2023-04-19T05:06:27.214Z,44.10
2023-04-19T05:09:02.219Z,44.00
2023-04-19T05:11:43.859Z,43.40
2023-04-19T05:14:18.876Z,43.30
2023-04-19T05:16:55.108Z,43.40
2023-04-19T05:19:30.424Z,43.30
2023-04-19T05:22:12.996Z,43.30
2023-04-19T05:24:50.122Z,43.00
2023-04-19T05:27:25.892Z,42.50
2023-04-19T05:30:02.808Z,42.50
2023-04-19T05:32:39.697Z,42.40
2023-04-19T05:35:17.305Z,42.40
2023-04-19T05:37:52.590Z,42.00
2023-04-19T05:40:28.358Z,41.80
2023-04-19T05:43:03.406Z,41.40
2023-04-19T05:45:38.824Z,41.40
2023-04-19T05:48:14.341Z,41.30
2023-04-19T05:51:10.837Z,41.20
2023-04-19T05:53:57.787Z,41.00
2023-04-19T05:56:33.766Z,40.90
2023-04-19T05:59:11.447Z,40.30
2023-04-19T06:01:46.797Z,40.40
2023-04-19T06:04:22.909Z,40.10
2023-04-19T06:06:58.509Z,40.50
2023-04-19T06:09:33.889Z,40.40
2023-04-19T06:12:09.033Z,39.90
2023-04-19T06:14:43.855Z,39.60
2023-04-19T06:17:24.403Z,39.60
2023-04-19T06:19:59.448Z,39.40
2023-04-19T06:22:34.510Z,39.40
2023-04-19T06:25:09.846Z,39.40
2023-04-19T06:27:44.692Z,39.40
2023-04-19T06:30:19.561Z,39.40
2023-04-19T06:32:54.424Z,39.20
2023-04-19T06:35:29.302Z,38.60
2023-04-19T06:38:04.162Z,38.40
2023-04-19T06:40:39.020Z,38.50
2023-04-19T06:43:13.890Z,38.10
2023-04-19T06:45:48.780Z,38.10
2023-04-19T06:48:23.694Z,38.00
2023-04-19T06:50:58.548Z,37.80
2023-04-19T06:53:33.430Z,37.60
2023-04-19T06:56:09.972Z,37.30
2023-04-19T06:58:44.861Z,37.30
2023-04-19T07:01:19.793Z,37.00
2023-04-19T07:03:57.336Z,37.00
2023-04-19T07:06:33.078Z,37.00
2023-04-19T07:09:08.515Z,36.90
2023-04-19T07:11:43.375Z,36.80
2023-04-19T07:14:19.324Z,36.60
2023-04-19T07:16:54.246Z,36.50
2023-04-19T07:19:29.165Z,36.20
2023-04-19T07:22:04.153Z,36.10
2023-04-19T07:24:41.704Z,35.90
2023-04-19T07:27:16.818Z,36.10
2023-04-19T07:29:52.571Z,36.20
2023-04-19T07:32:27.528Z,35.90
2023-04-19T07:35:02.445Z,35.70
2023-04-19T07:37:37.298Z,35.80
2023-04-19T07:40:12.797Z,35.90
2023-04-19T07:42:47.760Z,35.80
2023-04-19T07:45:23.011Z,35.70
2023-04-19T07:47:58.394Z,35.00
2023-04-19T07:50:33.316Z,35.10
2023-04-19T07:53:08.174Z,35.00
2023-04-19T07:55:43.036Z,34.70
2023-04-19T07:58:17.991Z,34.40
2023-04-19T08:00:52.960Z,34.20
2023-04-19T08:03:28.388Z,34.20
2023-04-19T08:06:05.598Z,33.90
2023-04-19T08:08:40.483Z,33.90
2023-04-19T08:11:15.448Z,34.00
2023-04-19T08:14:02.931Z,34.00
2023-04-19T08:17:21.042Z,33.90
2023-04-19T08:19:37.214Z,33.80
2023-04-19T08:22:12.072Z,33.40
2023-04-19T08:24:49.449Z,33.10
2023-04-19T08:27:27.031Z,32.70
2023-04-19T08:30:01.887Z,32.30
2023-04-19T08:32:37.326Z,32.20
2023-04-19T08:35:13.899Z,32.20
2023-04-19T08:37:49.550Z,32.40
2023-04-19T08:40:24.747Z,32.10
2023-04-19T08:43:05.375Z,32.20
2023-04-19T08:45:41.036Z,32.20
2023-04-19T08:48:17.881Z,31.90
2023-04-19T08:51:04.075Z,31.70
2023-04-19T08:53:40.409Z,31.40
2023-04-19T08:56:27.671Z,31.50
2023-04-19T08:59:18.042Z,31.40
2023-04-19T09:01:56.347Z,31.50
2023-04-19T09:04:37.093Z,31.40
2023-04-19T09:07:27.404Z,31.50
2023-04-19T09:10:11.266Z,31.70
2023-04-19T09:13:04.818Z,32.10
2023-04-19T09:15:43.655Z,32.60
2023-04-19T09:18:19.535Z,32.20
2023-04-19T09:20:57.580Z,32.30
2023-04-19T09:23:32.426Z,32.30
2023-04-19T09:26:22.841Z,31.50
2023-04-19T09:29:07.221Z,31.60
2023-04-19T09:31:59.960Z,31.90
2023-04-19T09:34:35.132Z,32.10
2023-04-19T09:37:21.265Z,31.90
2023-04-19T09:40:24.827Z,32.00
2023-04-19T09:43:12.844Z,31.20
2023-04-19T09:45:54.764Z,31.40
2023-04-19T09:48:29.666Z,31.40
2023-04-19T09:51:08.745Z,31.50
2023-04-19T09:53:45.200Z,31.60
2023-04-19T09:56:20.465Z,31.00
2023-04-19T09:59:01.659Z,31.10
2023-04-19T10:01:54.115Z,30.50
2023-04-19T10:04:47.904Z,30.00
2023-04-19T10:07:30.790Z,30.20
2023-04-19T10:10:18.706Z,30.10
2023-04-19T10:18:16.152Z,30.30
2023-04-19T10:21:01.869Z,30.60
2023-04-19T10:23:37.715Z,30.70
2023-04-19T10:26:12.567Z,30.60
2023-04-19T10:28:48.706Z,30.20
2023-04-19T10:31:26.778Z,30.40
2023-04-19T10:34:01.730Z,30.30
2023-04-19T10:36:38.005Z,30.40
2023-04-19T10:39:45.513Z,30.50
2023-04-19T10:42:20.890Z,30.60
2023-04-19T10:45:32.644Z,30.50
2023-04-19T10:48:30.448Z,30.70
2023-04-19T10:51:21.401Z,30.40
2023-04-19T10:53:57.638Z,30.20
2023-04-19T10:56:35.654Z,30.00
2023-04-19T10:59:21.436Z,30.30
2023-04-19T11:02:00.922Z,30.20
2023-04-19T11:04:36.248Z,30.30
2023-04-19T11:07:11.490Z,30.60
2023-04-19T11:09:47.904Z,30.80
2023-04-19T11:12:22.988Z,30.90
2023-04-19T11:14:59.907Z,30.90
2023-04-19T11:17:36.944Z,31.30
2023-04-19T11:20:13.480Z,31.50
2023-04-19T11:22:48.376Z,31.70
2023-04-19T11:25:24.599Z,31.90
2023-04-19T11:28:00.612Z,32.00
2023-04-19T11:30:35.668Z,32.20
2023-04-19T11:33:12.806Z,32.90
2023-04-19T11:35:47.645Z,32.80
2023-04-19T11:38:22.499Z,33.30
2023-04-19T11:41:01.576Z,33.60
2023-04-19T11:43:37.775Z,33.90
2023-04-19T11:46:14.388Z,34.50
2023-04-19T11:48:53.910Z,34.80
2023-04-19T11:51:28.777Z,35.70
2023-04-19T11:54:15.011Z,37.10
2023-04-19T11:57:07.436Z,37.50
2023-04-19T12:00:07.869Z,38.00
2023-04-19T12:02:48.902Z,38.30
2023-04-19T12:05:24.510Z,38.90
2023-04-19T12:08:05.444Z,39.40
2023-04-19T12:10:56.004Z,39.20
2023-04-19T12:13:31.880Z,39.40
2023-04-19T12:16:07.812Z,39.80
2023-04-19T12:18:51.096Z,39.70
2023-04-19T12:21:28.257Z,39.00
2023-04-19T12:24:03.777Z,39.70
2023-04-19T12:26:56.161Z,40.10
2023-04-19T12:29:31.453Z,40.40
2023-04-19T12:32:06.755Z,40.30
2023-04-19T12:34:42.041Z,40.40
2023-04-19T12:37:16.897Z,40.60
2023-04-19T12:39:51.733Z,40.00
2023-04-19T12:42:26.649Z,39.80
2023-04-19T12:45:01.599Z,39.80
2023-04-19T12:47:36.501Z,39.90
2023-04-19T12:50:12.785Z,39.60
2023-04-19T12:52:47.871Z,39.50
2023-04-19T12:55:22.972Z,39.60
2023-04-19T12:57:57.919Z,39.80
2023-04-19T13:00:32.855Z,39.60
2023-04-19T13:03:07.985Z,39.70
2023-04-19T13:05:43.007Z,39.60
2023-04-19T13:08:28.314Z,39.60
2023-04-19T13:11:12.792Z,39.70
2023-04-19T13:13:47.771Z,39.00
2023-04-19T13:16:23.127Z,39.40
2023-04-19T13:18:58.164Z,38.70
2023-04-19T13:21:33.092Z,38.40
2023-04-19T13:24:08.319Z,38.30
2023-04-19T13:26:45.924Z,38.20
2023-04-19T13:29:20.827Z,37.80
2023-04-19T13:31:55.909Z,37.50
2023-04-19T13:34:31.127Z,37.20
2023-04-19T13:37:07.452Z,36.90
2023-04-19T13:39:43.243Z,37.00
2023-04-19T13:42:19.088Z,36.90
2023-04-19T13:44:54.049Z,36.90
2023-04-19T13:47:29.053Z,36.90
2023-04-19T13:50:04.358Z,36.80
2023-04-19T13:52:39.249Z,37.10
2023-04-19T13:55:14.133Z,36.70
2023-04-19T13:57:49.047Z,36.70
2023-04-19T14:00:24.436Z,36.60
2023-04-19T14:02:59.529Z,36.60
2023-04-19T14:05:34.497Z,36.50
2023-04-19T14:08:09.477Z,36.40
2023-04-19T14:10:44.391Z,36.30
2023-04-19T14:13:19.362Z,36.10
2023-04-19T14:15:54.224Z,35.60
2023-04-19T14:18:29.190Z,35.20
2023-04-19T14:21:04.365Z,35.00
2023-04-19T14:23:39.197Z,34.60
2023-04-19T14:26:14.648Z,34.50
2023-04-19T14:28:49.547Z,34.20
2023-04-19T14:31:24.468Z,33.90
2023-04-19T14:33:59.816Z,33.90
2023-04-19T14:36:34.682Z,34.00
2023-04-19T14:39:09.558Z,34.10
2023-04-19T14:41:44.491Z,33.90
2023-04-19T14:44:19.423Z,33.80
2023-04-19T14:46:54.284Z,33.30
2023-04-19T14:49:29.305Z,33.50
2023-04-19T14:52:04.833Z,33.20
2023-04-19T14:54:39.700Z,33.00
2023-04-19T14:57:14.606Z,32.20
2023-04-19T14:59:49.527Z,32.20
2023-04-19T15:02:25.516Z,32.20
2023-04-19T15:05:00.683Z,32.10
2023-04-19T15:07:35.712Z,32.10
2023-04-19T15:10:10.838Z,32.30
2023-04-19T15:12:45.757Z,32.50
2023-04-19T15:15:21.374Z,32.70
2023-04-19T15:17:56.869Z,32.80
2023-04-19T15:20:31.864Z,32.80
2023-04-19T15:23:06.698Z,32.80
2023-04-19T15:25:41.621Z,32.80
2023-04-19T15:28:16.469Z,32.80
2023-04-19T15:31:00.601Z,32.90
2023-04-19T15:33:37.456Z,32.90
2023-04-19T15:36:12.316Z,32.80
2023-04-19T15:38:47.259Z,32.90
2023-04-19T15:41:22.569Z,32.60
2023-04-19T15:43:57.705Z,32.10
2023-04-19T15:46:32.751Z,31.90
2023-04-19T15:49:07.788Z,32.10
2023-04-19T15:51:42.682Z,32.20
2023-04-19T15:54:17.545Z,31.90
2023-04-19T15:56:52.449Z,31.60
2023-04-19T15:59:27.325Z,31.60
2023-04-19T16:02:02.395Z,31.30
2023-04-19T16:04:39.211Z,31.40
2023-04-19T16:07:14.458Z,31.70
2023-04-19T16:09:49.298Z,31.90
2023-04-19T16:12:25.125Z,32.20
2023-04-19T16:15:00.113Z,31.90
2023-04-19T16:17:35.796Z,31.50
2023-04-19T16:20:11.096Z,31.20
2023-04-19T16:22:46.706Z,30.60
2023-04-19T16:25:21.571Z,30.90
2023-04-19T16:27:56.705Z,31.60
2023-04-19T16:30:31.582Z,31.50
2023-04-19T16:33:06.570Z,31.10
2023-04-19T16:35:41.581Z,31.10
2023-04-19T16:38:16.864Z,30.70
2023-04-19T16:40:51.825Z,30.30
2023-04-19T16:43:26.714Z,29.90
2023-04-19T16:46:01.731Z,29.90
2023-04-19T16:48:36.852Z,30.20
2023-04-19T16:51:12.188Z,31.10
2023-04-19T16:53:47.411Z,30.70
2023-04-19T16:56:24.133Z,30.60
2023-04-19T16:58:59.032Z,30.60
2023-04-19T17:01:33.969Z,30.30
2023-04-19T17:04:10.978Z,30.40
2023-04-19T17:06:45.986Z,30.20
2023-04-19T17:09:21.141Z,30.40
2023-04-19T17:11:57.463Z,30.40
2023-04-19T17:14:35.240Z,30.90
2023-04-19T17:17:10.456Z,31.30
2023-04-19T17:19:45.455Z,31.70
2023-04-19T17:22:20.325Z,31.60
2023-04-19T17:24:57.252Z,31.80
2023-04-19T17:27:33.262Z,32.00
2023-04-19T17:30:08.953Z,32.10
2023-04-19T17:32:44.068Z,31.60
2023-04-19T17:35:19.125Z,30.10
2023-04-19T17:37:54.193Z,28.30
2023-04-19T17:40:29.533Z,26.80
2023-04-19T17:43:04.803Z,26.30
2023-04-19T17:45:40.309Z,26.00
2023-04-19T17:48:15.411Z,25.90
2023-04-19T17:50:50.824Z,25.50
2023-04-19T17:53:25.719Z,25.90
2023-04-19T17:56:00.616Z,25.80
2023-04-19T17:58:36.513Z,25.90
2023-04-19T18:01:11.442Z,25.40
2023-04-19T18:03:46.565Z,25.20
2023-04-19T18:06:21.966Z,25.30
2023-04-19T18:08:56.857Z,25.20
2023-04-19T18:11:31.768Z,25.30
2023-04-19T18:14:06.702Z,24.90
2023-04-19T18:16:41.627Z,25.00
2023-04-19T18:19:16.684Z,25.00
2023-04-19T18:21:51.750Z,25.00
2023-04-19T18:24:26.715Z,24.90
2023-04-19T18:27:02.529Z,24.70
2023-04-19T18:29:37.468Z,24.60
2023-04-19T18:32:12.458Z,24.80
2023-04-19T18:34:47.489Z,25.10
2023-04-19T18:37:22.919Z,25.20
2023-04-19T18:39:57.865Z,24.90
2023-04-19T18:42:32.950Z,25.20
2023-04-19T18:45:09.300Z,25.10
2023-04-19T18:47:44.931Z,25.10
2023-04-19T18:50:19.854Z,25.10
2023-04-19T18:52:54.768Z,25.10
2023-04-19T18:55:31.133Z,25.40
2023-04-19T18:58:06.132Z,25.60
2023-04-19T19:00:43.191Z,25.50
2023-04-19T19:03:43.881Z,25.50
2023-04-19T19:06:14.037Z,25.60
2023-04-19T19:08:50.160Z,25.70
2023-04-19T19:14:03.439Z,26.00
2023-04-19T19:16:50.805Z,26.00
2023-04-19T19:19:26.039Z,26.00
2023-04-19T19:22:00.915Z,26.10
2023-04-19T19:24:35.800Z,26.20
2023-04-19T19:27:10.816Z,26.30
2023-04-19T19:29:46.958Z,26.40
2023-04-19T19:32:21.983Z,26.40
2023-04-19T19:35:03.115Z,26.50
2023-04-19T19:37:40.337Z,26.50
2023-04-19T19:40:15.351Z,26.50
2023-04-19T19:42:50.224Z,26.50
2023-04-19T19:45:28.961Z,26.70
2023-04-19T19:48:04.252Z,26.70
2023-04-19T19:51:07.298Z,26.60
2023-04-19T19:53:34.933Z,26.60
2023-04-19T19:56:18.378Z,26.70
2023-04-19T19:58:57.799Z,26.60
2023-04-19T20:01:33.226Z,26.60
2023-04-19T20:04:08.755Z,26.60
2023-04-19T20:09:21.974Z,27.30
2023-04-19T20:11:57.070Z,27.30
2023-04-19T20:14:31.928Z,27.40
2023-04-19T20:17:07.051Z,27.40
2023-04-19T20:19:44.776Z,27.50
2023-04-19T20:22:19.828Z,27.50
2023-04-19T20:24:54.734Z,27.50
2023-04-19T20:27:29.672Z,27.50
2023-04-19T20:30:08.032Z,27.40
2023-04-19T20:32:43.249Z,27.50
2023-04-19T20:35:18.261Z,27.30
2023-04-19T20:37:54.423Z,27.40
2023-04-19T20:40:31.752Z,27.50
2023-04-19T20:43:08.178Z,27.50
2023-04-19T20:45:43.235Z,27.60
2023-04-19T20:48:18.176Z,27.70
2023-04-19T20:50:53.069Z,27.80
2023-04-19T20:53:27.945Z,27.90
2023-04-19T20:56:02.920Z,28.00
2023-04-19T20:58:39.342Z,28.10
2023-04-19T21:01:17.341Z,28.20
2023-04-19T21:03:52.536Z,28.30
2023-04-19T21:06:27.782Z,28.30
2023-04-19T21:09:02.704Z,28.40
2023-04-19T21:11:37.564Z,28.50
2023-04-19T21:14:12.424Z,28.60
2023-04-19T21:16:47.275Z,28.80
2023-04-19T21:19:22.373Z,28.70
2023-04-19T21:21:58.694Z,28.70
2023-04-19T21:24:33.607Z,28.80
2023-04-19T21:27:08.473Z,28.70
2023-04-19T21:29:43.358Z,28.80
2023-04-19T21:32:18.533Z,28.90
2023-04-19T21:34:54.116Z,29.00
2023-04-19T21:37:28.996Z,29.00
2023-04-19T21:40:04.552Z,28.90
2023-04-19T21:42:39.529Z,28.90
2023-04-19T21:45:14.416Z,28.80
2023-04-19T21:47:49.301Z,28.80
2023-04-19T21:50:24.152Z,29.00
2023-04-19T21:52:58.994Z,29.10
2023-04-19T21:55:34.473Z,29.20
2023-04-19T21:58:09.308Z,29.20
2023-04-19T22:00:45.577Z,29.30
2023-04-19T22:03:20.711Z,29.40
2023-04-19T22:05:55.707Z,29.40
2023-04-19T22:08:32.752Z,29.50
2023-04-19T22:11:07.998Z,29.50
2023-04-19T22:13:44.114Z,29.50
2023-04-19T22:16:18.983Z,29.50
2023-04-19T22:18:54.262Z,29.60
2023-04-19T22:21:29.747Z,29.60
2023-04-19T22:24:04.912Z,29.70
2023-04-19T22:26:39.782Z,29.70
2023-04-19T22:29:14.905Z,29.80
2023-04-19T22:31:50.100Z,29.80
2023-04-19T22:34:24.954Z,30.00
2023-04-19T22:36:59.860Z,30.00
2023-04-19T22:39:34.792Z,30.00
2023-04-19T22:42:09.708Z,30.20
2023-04-19T22:44:44.564Z,30.40
2023-04-19T22:47:19.526Z,30.40
2023-04-19T22:49:54.728Z,30.60
2023-04-19T22:52:29.700Z,30.70
2023-04-19T22:55:04.950Z,30.80
2023-04-19T22:57:39.832Z,30.90
2023-04-19T23:00:14.960Z,30.90
2023-04-19T23:02:49.849Z,30.80
2023-04-19T23:05:28.207Z,31.40
2023-04-19T23:08:04.140Z,31.00
2023-04-19T23:10:39.206Z,31.10
2023-04-19T23:13:15.716Z,31.20
2023-04-19T23:15:50.843Z,31.40
2023-04-19T23:18:26.448Z,31.60
2023-04-19T23:21:01.299Z,31.60
2023-04-19T23:23:36.286Z,31.70
2023-04-19T23:26:11.154Z,31.60
2023-04-19T23:28:46.022Z,31.60
2023-04-19T23:31:21.086Z,31.60
2023-04-19T23:33:55.964Z,31.60
2023-04-19T23:36:31.251Z,31.60
2023-04-19T23:39:06.220Z,31.70
2023-04-19T23:41:41.248Z,31.90
2023-04-19T23:44:16.274Z,31.90
2023-04-19T23:46:51.242Z,31.90
2023-04-19T23:49:26.278Z,31.90
2023-04-19T23:52:03.669Z,32.10
2023-04-19T23:54:38.572Z,32.20
2023-04-19T23:57:13.411Z,32.40
2023-04-19T23:59:48.306Z,32.50
